Impacts TAF Board
For situational awareness. Not to be used for flight planning purposes.
IDs:

KPIT - Pittsburgh Intl, PA, US

Issued at 1449 UTC 01 Mar 2021
Updated at 1649 UTC 01 Mar 2021
Potential Impact None Slight Moderate High
Time1551Z 01/17Z 01/18Z 01/19Z 01/20Z 01/21Z 01/22Z 01/23Z 02/00Z 02/01Z 02/02Z 02/03Z 02/04Z 02/05Z>>
Type OBS PRVL PRVL PRVL PRVL PRVL PRVL PRVL PRVL PRVL PRVL PRVL PRVL PRVL
VIS 10 >6 >6 >6 >6 >6 >6 >6 >6 >6 >6 >6 >6 >6
CIG 30 25 35 35 35 35 35 35 35 35 35 -- -- --
Cover OVC BKN BKN BKN BKN BKN BKN BKN BKN BKN BKN SCT SCT SCT
FltCat MVFR MVFR VFR VFR VFR VFR VFR VFR VFR VFR VFR VFR VFR VFR
WX -- -- -- -- -- -- -- -- -- -- -- -- -- --
WDir 300 300 300 300 300 300 300 300 300 300 300 310 310 310
WSpd 17 15 15 15 15 15 15 15 15 15 15 10 10 10
WGst 30 25 30 30 30 30 30 30 30 30 30 20 20 20
Raw TAF
KPIT 011449Z 0115/0218 30015G25KT P6SM BKN025
  FM011800 30015G30KT P6SM BKN035
  FM020300 31010G20KT P6SM SCT035
  FM021000 31010KT P6SM SKC


Raw METAR
KPIT 011551Z 30017G30KT 10SM BKN030 BKN043 OVC220 04/M02 A2992 RMK AO2 PK WND 32030/1544 SLP140 T00391017
KPIT 011538Z 30016KT 10SM SCT028 BKN040 OVC220 04/M02 A2991 RMK AO2 T00441017
KPIT 011451Z 30013KT 10SM BKN028 OVC035 04/00 A2991 RMK AO2 SLP139 T00390000 51030
KPIT 011351Z 31015KT 10SM OVC027 03/M01 A2990 RMK AO2 SLP135 T00331006

METAR Board
Radar Display
Forecast Discussion
For situational awareness. Not to be used for flight planning purposes.